createdAt,value
2023-05-20T00:01:44.803Z,8.80
2023-05-20T00:07:06.801Z,8.73
2023-05-20T00:12:30.042Z,8.10
2023-05-20T00:17:51.856Z,7.88
2023-05-20T00:23:13.886Z,7.90
2023-05-20T00:28:36.996Z,9.18
2023-05-20T00:33:59.140Z,7.93
2023-05-20T00:39:21.536Z,8.20
2023-05-20T00:44:44.880Z,9.50
2023-05-20T00:50:07.441Z,8.60
2023-05-20T00:55:30.994Z,8.75
2023-05-20T01:00:55.353Z,8.60
2023-05-20T01:06:17.288Z,8.60
2023-05-20T01:11:43.720Z,8.70
2023-05-20T01:17:11.133Z,9.02
2023-05-20T01:22:34.678Z,9.02
2023-05-20T01:27:58.768Z,9.15
2023-05-20T01:33:21.961Z,8.13
2023-05-20T01:38:45.450Z,9.07
2023-05-20T01:44:08.080Z,9.48
2023-05-20T01:49:30.450Z,10.15
2023-05-20T01:54:53.791Z,10.18
2023-05-20T02:00:16.749Z,12.25
2023-05-20T02:05:40.387Z,13.73
2023-05-20T02:11:03.911Z,13.48
2023-05-20T02:16:25.931Z,13.30
2023-05-20T02:21:49.113Z,13.88
2023-05-20T02:27:13.102Z,13.45
2023-05-20T02:32:35.136Z,13.43
2023-05-20T02:37:57.220Z,13.27
2023-05-20T02:43:20.533Z,13.43
2023-05-20T02:48:42.811Z,11.57
2023-05-20T02:54:05.464Z,12.85
2023-05-20T02:59:29.172Z,16.63
2023-05-20T03:04:54.005Z,17.52
2023-05-20T03:10:16.110Z,15.75
2023-05-20T03:15:41.518Z,15.15
2023-05-20T03:21:04.210Z,15.10
2023-05-20T03:26:26.843Z,14.90
2023-05-20T03:31:50.576Z,15.52
2023-05-20T03:37:12.393Z,11.80
2023-05-20T03:42:34.306Z,11.95
2023-05-20T03:47:57.764Z,9.18
2023-05-20T03:53:21.066Z,10.93
2023-05-20T03:58:43.874Z,9.02
2023-05-20T04:04:07.494Z,8.15
2023-05-20T04:09:29.738Z,8.65
2023-05-20T04:14:52.816Z,8.98
2023-05-20T04:20:16.783Z,8.68
2023-05-20T04:25:39.560Z,8.40
2023-05-20T04:31:02.860Z,9.32
2023-05-20T04:36:28.908Z,10.20
2023-05-20T04:41:54.781Z,10.30
2023-05-20T04:47:17.837Z,10.82
2023-05-20T04:52:41.997Z,12.20
2023-05-20T04:58:04.240Z,11.52
2023-05-20T05:03:26.438Z,12.13
2023-05-20T05:08:49.985Z,11.52
2023-05-20T05:14:12.385Z,10.27
2023-05-20T05:19:35.213Z,8.38
2023-05-20T05:25:00.183Z,8.00
2023-05-20T05:30:22.437Z,8.70
2023-05-20T05:35:45.215Z,7.97
2023-05-20T05:41:08.969Z,8.40
2023-05-20T05:46:31.493Z,8.85
2023-05-20T05:51:53.656Z,9.70
2023-05-20T05:57:18.093Z,8.88
2023-05-20T06:02:40.466Z,9.90
2023-05-20T06:08:02.830Z,10.77
2023-05-20T06:13:28.715Z,12.50
2023-05-20T06:18:51.563Z,12.15
2023-05-20T06:24:13.804Z,10.15
2023-05-20T06:29:37.456Z,7.70
2023-05-20T06:34:59.503Z,8.15
2023-05-20T06:40:21.646Z,7.13
2023-05-20T06:45:45.569Z,6.88
2023-05-20T06:51:36.816Z,5.80
2023-05-20T06:56:59.482Z,7.35
2023-05-20T07:02:23.194Z,6.82
2023-05-20T07:07:45.488Z,6.18
2023-05-20T07:13:07.812Z,5.05
2023-05-20T07:18:31.225Z,5.10
2023-05-20T07:23:53.132Z,6.68
2023-05-20T07:29:15.190Z,5.50
2023-05-20T07:34:38.557Z,5.70
2023-05-20T07:40:00.783Z,6.30
2023-05-20T07:45:22.943Z,6.45
2023-05-20T07:50:46.880Z,8.10
2023-05-20T07:56:09.448Z,8.05
2023-05-20T08:01:32.989Z,6.22
2023-05-20T08:06:56.635Z,5.07
2023-05-20T08:12:33.147Z,4.80
2023-05-20T08:17:56.740Z,4.15
2023-05-20T08:23:20.009Z,4.10
2023-05-20T08:28:41.652Z,3.85
2023-05-20T08:34:03.628Z,3.45
2023-05-20T08:39:27.142Z,3.70
2023-05-20T08:44:51.232Z,4.50
2023-05-20T08:50:14.257Z,3.50
2023-05-20T08:55:39.352Z,2.97
2023-05-20T09:01:01.388Z,3.55
2023-05-20T09:06:24.178Z,3.33
2023-05-20T09:11:47.139Z,3.80
2023-05-20T09:17:09.312Z,3.88
2023-05-20T09:22:31.297Z,3.00
2023-05-20T09:27:54.866Z,3.70
2023-05-20T09:33:18.050Z,3.28
2023-05-20T09:38:40.402Z,2.97
2023-05-20T09:44:04.415Z,3.65
2023-05-20T09:49:26.934Z,4.32
2023-05-20T09:54:49.244Z,2.47
2023-05-20T10:00:14.160Z,3.60
2023-05-20T10:05:39.783Z,2.28
2023-05-20T10:11:07.027Z,2.38
2023-05-20T10:16:35.682Z,3.10
2023-05-20T10:22:01.986Z,2.60
2023-05-20T10:32:56.925Z,2.70
2023-05-20T10:38:20.732Z,3.05
2023-05-20T10:43:44.377Z,4.70
2023-05-20T10:49:18.503Z,2.83
2023-05-20T10:54:45.166Z,3.65
2023-05-20T11:00:10.812Z,3.10
2023-05-20T11:05:34.030Z,3.42
2023-05-20T11:10:57.501Z,4.95
2023-05-20T11:16:19.333Z,3.30
2023-05-20T11:21:45.762Z,3.40
2023-05-20T11:27:07.881Z,3.30
2023-05-20T11:32:30.783Z,3.35
2023-05-20T11:37:58.634Z,4.15
2023-05-20T11:43:21.330Z,3.45
2023-05-20T11:48:52.178Z,2.10
2023-05-20T11:54:15.394Z,3.60
2023-05-20T11:59:37.678Z,3.22
2023-05-20T12:04:59.582Z,3.22
2023-05-20T12:10:23.116Z,2.80
2023-05-20T12:15:45.303Z,2.92
2023-05-20T12:21:07.258Z,3.85
2023-05-20T12:26:31.257Z,3.55
2023-05-20T12:31:53.302Z,2.55
2023-05-20T12:37:14.992Z,3.33
2023-05-20T12:42:39.031Z,2.30
2023-05-20T12:48:01.129Z,2.60
2023-05-20T12:53:22.842Z,2.10
2023-05-20T12:58:45.954Z,3.10
2023-05-20T13:04:08.229Z,2.50
2023-05-20T13:09:29.913Z,2.80
2023-05-20T13:14:53.341Z,3.97
2023-05-20T13:20:16.345Z,2.25
2023-05-20T13:25:39.584Z,2.28
2023-05-20T13:31:03.046Z,3.15
2023-05-20T13:36:24.931Z,2.95
2023-05-20T13:41:47.123Z,3.70
2023-05-20T13:47:10.314Z,3.75
2023-05-20T13:52:32.069Z,2.47
2023-05-20T13:57:55.666Z,2.60
2023-05-20T14:03:18.928Z,3.10
2023-05-20T14:08:40.890Z,2.75
2023-05-20T14:14:03.289Z,2.42
2023-05-20T14:19:27.087Z,3.75
2023-05-20T14:24:49.292Z,4.10
2023-05-20T14:30:11.684Z,2.50
2023-05-20T14:35:35.212Z,3.17
2023-05-20T14:40:56.972Z,3.25
2023-05-20T14:46:18.824Z,4.15
2023-05-20T14:51:42.530Z,3.75
2023-05-20T14:57:06.334Z,4.53
2023-05-20T15:02:28.766Z,4.65
2023-05-20T15:07:52.124Z,3.40
2023-05-20T15:13:13.982Z,4.25
2023-05-20T15:18:36.550Z,3.33
2023-05-20T15:24:00.295Z,3.50
2023-05-20T15:29:22.336Z,2.60
2023-05-20T15:34:44.022Z,4.50
2023-05-20T15:40:08.584Z,6.25
2023-05-20T15:45:31.969Z,3.05
2023-05-20T15:50:53.612Z,4.18
2023-05-20T15:56:17.176Z,3.20
2023-05-20T16:01:40.330Z,5.35
2023-05-20T16:07:02.385Z,3.00
2023-05-20T16:12:26.123Z,3.35
2023-05-20T16:17:47.874Z,2.80
2023-05-20T16:23:10.749Z,3.45
2023-05-20T16:28:34.307Z,3.10
2023-05-20T16:33:56.424Z,3.35
2023-05-20T16:39:18.300Z,4.03
2023-05-20T16:44:45.216Z,5.97
2023-05-20T16:50:07.825Z,7.35
2023-05-20T16:55:29.836Z,6.80
2023-05-20T17:00:53.563Z,8.35
2023-05-20T17:06:15.514Z,9.90
2023-05-20T17:11:37.471Z,7.85
2023-05-20T17:17:01.213Z,5.32
2023-05-20T17:22:23.194Z,4.60
2023-05-20T17:27:45.549Z,5.22
2023-05-20T17:33:09.191Z,6.18
2023-05-20T17:38:31.164Z,5.22
2023-05-20T17:43:54.032Z,5.05
2023-05-20T17:49:17.274Z,5.78
2023-05-20T17:54:38.961Z,4.55
2023-05-20T18:00:00.960Z,3.67
2023-05-20T18:05:24.370Z,4.03
2023-05-20T18:10:46.837Z,4.18
2023-05-20T18:16:09.317Z,4.65
2023-05-20T18:21:33.016Z,3.88
2023-05-20T18:26:54.662Z,3.13
2023-05-20T18:32:16.710Z,3.30
2023-05-20T18:37:39.907Z,4.70
2023-05-20T18:43:01.801Z,4.88
2023-05-20T18:48:27.022Z,3.90
2023-05-20T18:53:51.245Z,3.75
2023-05-20T18:59:13.219Z,4.03
2023-05-20T19:04:35.074Z,3.20
2023-05-20T19:09:58.426Z,3.10
2023-05-20T19:15:20.556Z,3.38
2023-05-20T19:20:42.732Z,2.95
2023-05-20T19:26:06.483Z,3.03
2023-05-20T19:31:28.578Z,3.03
2023-05-20T19:36:51.300Z,2.92
2023-05-20T19:42:14.695Z,3.70
2023-05-20T19:47:37.180Z,3.00
2023-05-20T19:52:58.932Z,2.90
2023-05-20T19:58:22.498Z,3.00
2023-05-20T20:03:46.006Z,3.53
2023-05-20T20:09:08.526Z,3.45
2023-05-20T20:14:32.258Z,3.33
2023-05-20T20:19:55.335Z,3.10
2023-05-20T20:25:17.247Z,2.97
2023-05-20T20:30:40.501Z,3.67
2023-05-20T20:36:02.523Z,3.15
2023-05-20T20:41:24.913Z,3.33
2023-05-20T20:46:50.798Z,3.05
2023-05-20T20:52:12.768Z,3.45
2023-05-20T20:57:35.597Z,2.95
2023-05-20T21:02:58.753Z,3.45
2023-05-20T21:08:22.223Z,3.53
2023-05-20T21:13:44.334Z,3.30
2023-05-20T21:19:07.770Z,3.13
2023-05-20T21:24:29.347Z,3.30
2023-05-20T21:29:54.775Z,3.25
2023-05-20T21:35:18.158Z,4.13
2023-05-20T21:40:40.047Z,3.97
2023-05-20T21:46:02.439Z,4.10
2023-05-20T21:51:25.814Z,3.65
2023-05-20T21:56:47.589Z,4.07
2023-05-20T22:02:09.734Z,4.00
2023-05-20T22:07:33.254Z,4.70
2023-05-20T22:12:55.522Z,4.35
2023-05-20T22:18:17.688Z,4.20
2023-05-20T22:23:41.358Z,4.38
2023-05-20T22:29:04.128Z,3.70
2023-05-20T22:34:26.157Z,4.00
2023-05-20T22:39:49.232Z,3.20
2023-05-20T22:45:11.404Z,3.50
2023-05-20T22:50:35.305Z,3.60
2023-05-20T22:55:59.872Z,3.42
2023-05-20T23:01:22.556Z,3.00
2023-05-20T23:06:45.689Z,3.15
2023-05-20T23:12:09.452Z,2.75
2023-05-20T23:17:31.484Z,2.63
2023-05-20T23:22:53.430Z,2.80
2023-05-20T23:28:16.560Z,2.22
2023-05-20T23:33:38.555Z,2.95
2023-05-20T23:39:00.954Z,2.13
2023-05-20T23:44:24.061Z,2.22
2023-05-20T23:49:47.849Z,2.20
2023-05-20T23:55:14.329Z,1.83
